sensor_id;sensor_type;location;lat;lon;timestamp;pressure;altitude;pressure_sealevel;temperature;humidity
27425;BME280;15244;49.088;11.886;2023-05-10T00:02:32;95152.66;;;19.62;33.81
27425;BME280;15244;49.088;11.886;2023-05-10T00:07:34;95136.56;;;19.60;34.02
27425;BME280;15244;49.088;11.886;2023-05-10T00:12:36;95130.38;;;19.56;34.20
27425;BME280;15244;49.088;11.886;2023-05-10T00:17:37;95129.31;;;19.54;34.35
27425;BME280;15244;49.088;11.886;2023-05-10T00:22:39;95126.97;;;19.52;34.41
27425;BME280;15244;49.088;11.886;2023-05-10T00:27:41;95122.38;;;19.49;34.59
27425;BME280;15244;49.088;11.886;2023-05-10T00:32:42;95113.75;;;19.47;34.77
27425;BME280;15244;49.088;11.886;2023-05-10T00:37:45;95119.44;;;19.43;34.69
27425;BME280;15244;49.088;11.886;2023-05-10T00:42:46;95115.59;;;19.41;34.93
27425;BME280;15244;49.088;11.886;2023-05-10T00:47:48;95120.81;;;19.39;34.97
27425;BME280;15244;49.088;11.886;2023-05-10T00:52:51;95120.50;;;19.37;35.05
27425;BME280;15244;49.088;11.886;2023-05-10T00:57:53;95122.16;;;19.34;35.40
27425;BME280;15244;49.088;11.886;2023-05-10T01:02:55;95119.56;;;19.31;35.40
27425;BME280;15244;49.088;11.886;2023-05-10T01:07:57;95120.00;;;19.29;36.02
27425;BME280;15244;49.088;11.886;2023-05-10T01:12:59;95117.72;;;19.27;36.62
27425;BME280;15244;49.088;11.886;2023-05-10T01:18:01;95116.16;;;19.26;37.08
27425;BME280;15244;49.088;11.886;2023-05-10T01:28:42;95125.19;;;19.18;37.37
27425;BME280;15244;49.088;11.886;2023-05-10T01:33:55;95130.88;;;19.14;37.35
27425;BME280;15244;49.088;11.886;2023-05-10T01:39:20;95125.94;;;19.09;37.58
27425;BME280;15244;49.088;11.886;2023-05-10T01:44:34;95133.56;;;19.05;37.78
27425;BME280;15244;49.088;11.886;2023-05-10T01:49:43;95133.69;;;19.01;38.05
27425;BME280;15244;49.088;11.886;2023-05-10T01:54:53;95129.84;;;18.99;38.12
27425;BME280;15244;49.088;11.886;2023-05-10T01:59:56;95130.75;;;18.96;38.54
27425;BME280;15244;49.088;11.886;2023-05-10T02:04:58;95132.44;;;18.93;38.38
27425;BME280;15244;49.088;11.886;2023-05-10T02:10:02;95132.13;;;18.91;38.72
27425;BME280;15244;49.088;11.886;2023-05-10T02:15:06;95126.75;;;18.88;38.64
27425;BME280;15244;49.088;11.886;2023-05-10T02:20:10;95127.31;;;18.82;38.64
27425;BME280;15244;49.088;11.886;2023-05-10T02:25:13;95120.72;;;18.80;38.74
27425;BME280;15244;49.088;11.886;2023-05-10T02:30:16;95126.69;;;18.78;38.90
27425;BME280;15244;49.088;11.886;2023-05-10T02:35:19;95116.53;;;18.75;39.30
27425;BME280;15244;49.088;11.886;2023-05-10T02:40:22;95118.94;;;18.73;39.97
27425;BME280;15244;49.088;11.886;2023-05-10T02:45:30;95124.63;;;18.70;39.82
27425;BME280;15244;49.088;11.886;2023-05-10T02:50:33;95115.25;;;18.67;40.21
27425;BME280;15244;49.088;11.886;2023-05-10T02:55:37;95116.16;;;18.64;40.41
27425;BME280;15244;49.088;11.886;2023-05-10T03:00:40;95116.25;;;18.60;40.65
27425;BME280;15244;49.088;11.886;2023-05-10T03:05:41;95120.69;;;18.58;40.98
27425;BME280;15244;49.088;11.886;2023-05-10T03:16:13;95121.75;;;18.51;41.66
27425;BME280;15244;49.088;11.886;2023-05-10T03:21:18;95123.09;;;18.47;41.63
27425;BME280;15244;49.088;11.886;2023-05-10T03:26:26;95128.44;;;18.41;41.74
27425;BME280;15244;49.088;11.886;2023-05-10T03:31:35;95128.09;;;18.39;41.98
27425;BME280;15244;49.088;11.886;2023-05-10T03:36:37;95130.66;;;18.33;42.33
27425;BME280;15244;49.088;11.886;2023-05-10T03:41:39;95135.97;;;18.28;42.38
27425;BME280;15244;49.088;11.886;2023-05-10T03:46:40;95129.50;;;18.22;42.80
27425;BME280;15244;49.088;11.886;2023-05-10T03:51:42;95130.41;;;18.18;43.82
27425;BME280;15244;49.088;11.886;2023-05-10T03:56:44;95137.25;;;18.14;43.83
27425;BME280;15244;49.088;11.886;2023-05-10T04:01:46;95139.25;;;18.13;44.13
27425;BME280;15244;49.088;11.886;2023-05-10T04:06:48;95140.13;;;18.10;44.44
27425;BME280;15244;49.088;11.886;2023-05-10T04:11:50;95141.78;;;18.08;44.93
27425;BME280;15244;49.088;11.886;2023-05-10T04:16:51;95136.72;;;18.06;45.02
27425;BME280;15244;49.088;11.886;2023-05-10T04:21:53;95149.75;;;18.06;44.91
27425;BME280;15244;49.088;11.886;2023-05-10T04:26:55;95140.25;;;18.07;45.28
27425;BME280;15244;49.088;11.886;2023-05-10T04:31:58;95147.00;;;18.06;45.30
27425;BME280;15244;49.088;11.886;2023-05-10T04:36:59;95147.00;;;18.06;45.73
27425;BME280;15244;49.088;11.886;2023-05-10T04:42:02;95155.56;;;18.08;46.07
27425;BME280;15244;49.088;11.886;2023-05-10T04:47:04;95157.25;;;18.05;46.36
27425;BME280;15244;49.088;11.886;2023-05-10T04:52:06;95163.22;;;18.04;46.31
27425;BME280;15244;49.088;11.886;2023-05-10T04:57:07;95168.41;;;18.02;46.47
27425;BME280;15244;49.088;11.886;2023-05-10T05:02:09;95170.81;;;18.00;46.88
27425;BME280;15244;49.088;11.886;2023-05-10T05:07:11;95177.91;;;18.01;46.98
27425;BME280;15244;49.088;11.886;2023-05-10T05:12:12;95184.63;;;18.00;47.13
27425;BME280;15244;49.088;11.886;2023-05-10T05:17:15;95183.09;;;17.98;47.34
27425;BME280;15244;49.088;11.886;2023-05-10T05:22:17;95189.38;;;17.99;47.67
27425;BME280;15244;49.088;11.886;2023-05-10T05:27:20;95194.88;;;17.99;47.75
27425;BME280;15244;49.088;11.886;2023-05-10T05:32:25;95202.81;;;17.97;47.79
27425;BME280;15244;49.088;11.886;2023-05-10T05:37:27;95200.53;;;17.95;47.99
27425;BME280;15244;49.088;11.886;2023-05-10T05:42:30;95209.56;;;17.96;48.17
27425;BME280;15244;49.088;11.886;2023-05-10T05:47:34;95208.69;;;17.99;48.48
27425;BME280;15244;49.088;11.886;2023-05-10T05:52:35;95219.94;;;17.92;48.56
27425;BME280;15244;49.088;11.886;2023-05-10T05:57:38;95221.16;;;17.78;48.66
27425;BME280;15244;49.088;11.886;2023-05-10T06:02:40;95222.91;;;17.72;49.02
27425;BME280;15244;49.088;11.886;2023-05-10T06:07:42;95232.84;;;17.69;49.33
27425;BME280;15244;49.088;11.886;2023-05-10T06:12:44;95232.19;;;17.65;49.60
27425;BME280;15244;49.088;11.886;2023-05-10T06:17:46;95241.00;;;17.60;49.72
27425;BME280;15244;49.088;11.886;2023-05-10T06:22:51;95242.53;;;17.61;49.53
27425;BME280;15244;49.088;11.886;2023-05-10T06:27:52;95248.59;;;17.56;49.95
27425;BME280;15244;49.088;11.886;2023-05-10T06:32:58;95260.94;;;17.51;49.85
27425;BME280;15244;49.088;11.886;2023-05-10T06:38:00;95264.16;;;17.50;50.08
27425;BME280;15244;49.088;11.886;2023-05-10T06:43:02;95272.44;;;17.50;50.18
27425;BME280;15244;49.088;11.886;2023-05-10T06:48:04;95280.44;;;17.44;50.33
27425;BME280;15244;49.088;11.886;2023-05-10T06:53:06;95277.59;;;17.35;50.37
27425;BME280;15244;49.088;11.886;2023-05-10T06:58:08;95286.94;;;17.25;50.58
27425;BME280;15244;49.088;11.886;2023-05-10T07:03:10;95285.50;;;17.20;50.80
27425;BME280;15244;49.088;11.886;2023-05-10T07:08:12;95288.25;;;17.20;50.79
27425;BME280;15244;49.088;11.886;2023-05-10T07:13:14;95288.81;;;17.28;50.78
27425;BME280;15244;49.088;11.886;2023-05-10T07:18:16;95294.53;;;17.33;50.77
27425;BME280;15244;49.088;11.886;2023-05-10T07:23:18;95296.75;;;17.39;50.69
27425;BME280;15244;49.088;11.886;2023-05-10T07:28:19;95311.31;;;17.39;51.01
27425;BME280;15244;49.088;11.886;2023-05-10T07:33:21;95315.16;;;17.42;50.68
27425;BME280;15244;49.088;11.886;2023-05-10T07:38:23;95315.41;;;17.35;50.69
27425;BME280;15244;49.088;11.886;2023-05-10T07:43:25;95326.28;;;17.25;50.72
27425;BME280;15244;49.088;11.886;2023-05-10T07:48:26;95320.19;;;17.18;50.73
27425;BME280;15244;49.088;11.886;2023-05-10T07:53:28;95327.50;;;17.24;50.83
27425;BME280;15244;49.088;11.886;2023-05-10T07:58:30;95321.34;;;17.33;50.74
27425;BME280;15244;49.088;11.886;2023-05-10T08:03:32;95331.38;;;17.40;50.69
27425;BME280;15244;49.088;11.886;2023-05-10T08:08:34;95338.66;;;17.46;50.32
27425;BME280;15244;49.088;11.886;2023-05-10T08:13:36;95341.75;;;17.48;50.37
27425;BME280;15244;49.088;11.886;2023-05-10T08:18:39;95340.09;;;17.51;50.35
27425;BME280;15244;49.088;11.886;2023-05-10T08:23:41;95341.00;;;17.48;50.26
27425;BME280;15244;49.088;11.886;2023-05-10T08:28:42;95345.06;;;17.56;49.79
27425;BME280;15244;49.088;11.886;2023-05-10T08:33:44;95342.31;;;17.56;50.04
27425;BME280;15244;49.088;11.886;2023-05-10T08:38:45;95352.72;;;17.65;50.05
27425;BME280;15244;49.088;11.886;2023-05-10T08:43:51;95367.38;;;17.74;50.06
27425;BME280;15244;49.088;11.886;2023-05-10T08:48:57;95366.84;;;17.80;50.15
27425;BME280;15244;49.088;11.886;2023-05-10T08:54:01;95369.63;;;17.80;49.89
27425;BME280;15244;49.088;11.886;2023-05-10T08:59:04;95370.13;;;17.74;50.01
27425;BME280;15244;49.088;11.886;2023-05-10T09:04:05;95367.06;;;17.72;49.92
27425;BME280;15244;49.088;11.886;2023-05-10T09:09:07;95373.16;;;17.80;49.98
27425;BME280;15244;49.088;11.886;2023-05-10T09:14:10;95376.47;;;17.88;50.18
27425;BME280;15244;49.088;11.886;2023-05-10T09:19:13;95374.28;;;17.83;49.95
27425;BME280;15244;49.088;11.886;2023-05-10T09:24:15;95386.94;;;17.80;49.99
27425;BME280;15244;49.088;11.886;2023-05-10T09:29:17;95385.91;;;17.74;49.79
27425;BME280;15244;49.088;11.886;2023-05-10T09:34:19;95392.19;;;17.74;49.74
27425;BME280;15244;49.088;11.886;2023-05-10T09:39:33;95384.50;;;17.82;49.80
27425;BME280;15244;49.088;11.886;2023-05-10T09:44:35;95377.47;;;17.94;49.95
27425;BME280;15244;49.088;11.886;2023-05-10T09:49:37;95388.16;;;18.05;49.44
27425;BME280;15244;49.088;11.886;2023-05-10T09:54:45;95385.09;;;18.15;49.26
27425;BME280;15244;49.088;11.886;2023-05-10T09:59:54;95377.03;;;18.34;48.90
27425;BME280;15244;49.088;11.886;2023-05-10T10:04:55;95385.63;;;18.49;48.43
27425;BME280;15244;49.088;11.886;2023-05-10T10:09:58;95361.75;;;18.68;48.52
27425;BME280;15244;49.088;11.886;2023-05-10T10:15:00;95368.00;;;18.94;48.57
27425;BME280;15244;49.088;11.886;2023-05-10T10:20:03;95369.88;;;18.97;47.68
27425;BME280;15244;49.088;11.886;2023-05-10T10:25:05;95363.66;;;19.05;47.22
27425;BME280;15244;49.088;11.886;2023-05-10T10:30:28;95366.59;;;19.11;46.92
27425;BME280;15244;49.088;11.886;2023-05-10T10:35:33;95360.97;;;19.15;46.94
27425;BME280;15244;49.088;11.886;2023-05-10T10:40:36;95356.34;;;19.34;46.72
27425;BME280;15244;49.088;11.886;2023-05-10T10:45:39;95363.47;;;19.44;46.34
27425;BME280;15244;49.088;11.886;2023-05-10T10:50:45;95363.63;;;19.40;46.13
27425;BME280;15244;49.088;11.886;2023-05-10T10:55:48;95355.75;;;19.39;46.11
27425;BME280;15244;49.088;11.886;2023-05-10T11:00:50;95351.66;;;19.43;46.11
27425;BME280;15244;49.088;11.886;2023-05-10T11:05:57;95353.50;;;19.46;46.02
27425;BME280;15244;49.088;11.886;2023-05-10T11:16:40;95351.84;;;19.49;45.42
27425;BME280;15244;49.088;11.886;2023-05-10T11:27:06;95355.31;;;19.62;45.04
27425;BME280;15244;49.088;11.886;2023-05-10T11:32:08;95347.09;;;19.72;44.94
27425;BME280;15244;49.088;11.886;2023-05-10T11:37:10;95341.34;;;19.88;44.93
27425;BME280;15244;49.088;11.886;2023-05-10T11:42:12;95340.44;;;20.00;44.54
27425;BME280;15244;49.088;11.886;2023-05-10T11:47:13;95344.84;;;20.20;44.77
27425;BME280;15244;49.088;11.886;2023-05-10T11:52:15;95345.38;;;20.37;44.13
27425;BME280;15244;49.088;11.886;2023-05-10T11:57:18;95342.94;;;20.48;44.25
27425;BME280;15244;49.088;11.886;2023-05-10T12:02:20;95353.22;;;20.47;43.82
27425;BME280;15244;49.088;11.886;2023-05-10T12:07:23;95351.72;;;20.46;43.82
27425;BME280;15244;49.088;11.886;2023-05-10T12:12:24;95359.53;;;20.39;43.51
27425;BME280;15244;49.088;11.886;2023-05-10T12:17:29;95363.00;;;20.21;43.46
27425;BME280;15244;49.088;11.886;2023-05-10T12:22:33;95371.09;;;20.06;43.72
27425;BME280;15244;49.088;11.886;2023-05-10T12:27:36;95359.53;;;19.98;44.12
27425;BME280;15244;49.088;11.886;2023-05-10T12:32:39;95365.50;;;19.97;44.21
27425;BME280;15244;49.088;11.886;2023-05-10T12:37:45;95373.81;;;19.97;44.98
27425;BME280;15244;49.088;11.886;2023-05-10T12:42:46;95377.22;;;20.01;45.45
27425;BME280;15244;49.088;11.886;2023-05-10T12:47:48;95366.66;;;20.08;46.02
27425;BME280;15244;49.088;11.886;2023-05-10T12:52:50;95373.75;;;20.19;46.33
27425;BME280;15244;49.088;11.886;2023-05-10T12:57:51;95365.31;;;20.22;45.18
27425;BME280;15244;49.088;11.886;2023-05-10T13:02:53;95368.25;;;20.28;45.19
27425;BME280;15244;49.088;11.886;2023-05-10T13:07:54;95369.66;;;20.32;44.78
27425;BME280;15244;49.088;11.886;2023-05-10T13:12:57;95374.25;;;20.35;44.79
27425;BME280;15244;49.088;11.886;2023-05-10T13:17:59;95372.28;;;20.36;44.19
27425;BME280;15244;49.088;11.886;2023-05-10T13:23:01;95378.59;;;20.37;44.45
27425;BME280;15244;49.088;11.886;2023-05-10T13:28:04;95377.81;;;20.36;44.12
27425;BME280;15244;49.088;11.886;2023-05-10T13:33:06;95380.41;;;20.30;43.95
27425;BME280;15244;49.088;11.886;2023-05-10T13:38:07;95374.84;;;20.21;43.75
27425;BME280;15244;49.088;11.886;2023-05-10T13:43:09;95362.81;;;20.15;43.30
27425;BME280;15244;49.088;11.886;2023-05-10T13:48:11;95363.72;;;20.12;43.51
27425;BME280;15244;49.088;11.886;2023-05-10T13:53:15;95367.91;;;20.17;43.90
27425;BME280;15244;49.088;11.886;2023-05-10T13:58:16;95366.38;;;20.25;43.83
27425;BME280;15244;49.088;11.886;2023-05-10T14:03:18;95363.03;;;20.30;43.92
27425;BME280;15244;49.088;11.886;2023-05-10T14:08:20;95369.97;;;20.34;43.87
27425;BME280;15244;49.088;11.886;2023-05-10T14:13:23;95358.88;;;20.34;43.45
27425;BME280;15244;49.088;11.886;2023-05-10T14:18:25;95362.25;;;20.29;42.88
27425;BME280;15244;49.088;11.886;2023-05-10T14:23:27;95354.22;;;20.22;42.82
27425;BME280;15244;49.088;11.886;2023-05-10T14:28:30;95353.03;;;20.23;43.15
27425;BME280;15244;49.088;11.886;2023-05-10T14:33:31;95366.25;;;20.28;43.22
27425;BME280;15244;49.088;11.886;2023-05-10T14:38:33;95359.81;;;20.31;43.48
27425;BME280;15244;49.088;11.886;2023-05-10T14:43:34;95360.28;;;20.39;44.36
27425;BME280;15244;49.088;11.886;2023-05-10T14:48:37;95364.91;;;20.42;45.24
27425;BME280;15244;49.088;11.886;2023-05-10T14:53:39;95365.84;;;20.39;45.40
27425;BME280;15244;49.088;11.886;2023-05-10T14:58:40;95367.97;;;20.35;45.92
27425;BME280;15244;49.088;11.886;2023-05-10T15:03:42;95367.78;;;20.29;46.44
27425;BME280;15244;49.088;11.886;2023-05-10T15:08:44;95377.59;;;20.21;46.54
27425;BME280;15244;49.088;11.886;2023-05-10T15:13:45;95394.16;;;20.12;46.63
27425;BME280;15244;49.088;11.886;2023-05-10T15:18:48;95404.75;;;20.04;46.84
27425;BME280;15244;49.088;11.886;2023-05-10T15:23:50;95413.88;;;19.92;47.04
27425;BME280;15244;49.088;11.886;2023-05-10T15:28:51;95408.91;;;19.78;46.89
27425;BME280;15244;49.088;11.886;2023-05-10T15:33:57;95411.25;;;19.66;46.88
27425;BME280;15244;49.088;11.886;2023-05-10T15:39:02;95415.63;;;19.55;47.17
27425;BME280;15244;49.088;11.886;2023-05-10T15:44:04;95420.94;;;19.49;47.53
27425;BME280;15244;49.088;11.886;2023-05-10T15:49:06;95424.88;;;19.39;47.46
27425;BME280;15244;49.088;11.886;2023-05-10T15:54:08;95442.25;;;19.26;47.36
27425;BME280;15244;49.088;11.886;2023-05-10T15:59:10;95431.00;;;19.21;47.81
27425;BME280;15244;49.088;11.886;2023-05-10T16:04:12;95429.28;;;19.14;48.00
27425;BME280;15244;49.088;11.886;2023-05-10T16:09:13;95426.28;;;19.09;47.85
27425;BME280;15244;49.088;11.886;2023-05-10T16:14:15;95430.84;;;19.02;48.07
27425;BME280;15244;49.088;11.886;2023-05-10T16:19:17;95431.41;;;18.97;48.30
27425;BME280;15244;49.088;11.886;2023-05-10T16:24:19;95422.94;;;18.92;48.40
27425;BME280;15244;49.088;11.886;2023-05-10T16:29:21;95425.34;;;18.90;48.50
27425;BME280;15244;49.088;11.886;2023-05-10T16:34:22;95432.53;;;18.87;48.68
27425;BME280;15244;49.088;11.886;2023-05-10T16:39:25;95432.97;;;18.86;48.53
27425;BME280;15244;49.088;11.886;2023-05-10T16:44:27;95433.44;;;18.84;48.58
27425;BME280;15244;49.088;11.886;2023-05-10T16:49:28;95434.78;;;18.79;48.83
27425;BME280;15244;49.088;11.886;2023-05-10T16:54:30;95436.88;;;18.75;49.01
27425;BME280;15244;49.088;11.886;2023-05-10T16:59:32;95450.44;;;18.70;49.14
27425;BME280;15244;49.088;11.886;2023-05-10T17:04:34;95450.22;;;18.64;49.24
27425;BME280;15244;49.088;11.886;2023-05-10T17:09:36;95454.75;;;18.58;49.14
27425;BME280;15244;49.088;11.886;2023-05-10T17:14:37;95477.03;;;18.51;49.49
27425;BME280;15244;49.088;11.886;2023-05-10T17:19:39;95479.69;;;18.41;49.53
27425;BME280;15244;49.088;11.886;2023-05-10T17:24:40;95478.69;;;18.35;49.75
27425;BME280;15244;49.088;11.886;2023-05-10T17:29:42;95479.25;;;18.30;49.88
27425;BME280;15244;49.088;11.886;2023-05-10T17:34:44;95476.72;;;18.23;50.30
27425;BME280;15244;49.088;11.886;2023-05-10T17:39:45;95481.56;;;18.19;50.38
27425;BME280;15244;49.088;11.886;2023-05-10T17:44:47;95488.38;;;18.14;50.24
27425;BME280;15244;49.088;11.886;2023-05-10T17:49:48;95493.00;;;18.05;50.25
27425;BME280;15244;49.088;11.886;2023-05-10T17:54:50;95502.25;;;17.98;50.53
27425;BME280;15244;49.088;11.886;2023-05-10T17:59:52;95506.88;;;17.88;50.50
27425;BME280;15244;49.088;11.886;2023-05-10T18:04:54;95504.13;;;17.72;50.59
27425;BME280;15244;49.088;11.886;2023-05-10T18:10:00;95505.63;;;17.60;51.00
27425;BME280;15244;49.088;11.886;2023-05-10T18:15:01;95512.53;;;17.52;51.08
27425;BME280;15244;49.088;11.886;2023-05-10T18:20:04;95518.13;;;17.48;51.17
27425;BME280;15244;49.088;11.886;2023-05-10T18:25:06;95528.56;;;17.41;50.98
27425;BME280;15244;49.088;11.886;2023-05-10T18:30:08;95524.88;;;17.31;51.16
27425;BME280;15244;49.088;11.886;2023-05-10T18:35:12;95526.16;;;17.26;51.31
27425;BME280;15244;49.088;11.886;2023-05-10T18:40:15;95529.03;;;17.23;51.37
27425;BME280;15244;49.088;11.886;2023-05-10T18:45:17;95530.66;;;17.20;51.35
27425;BME280;15244;49.088;11.886;2023-05-10T18:50:19;95535.47;;;17.16;51.47
27425;BME280;15244;49.088;11.886;2023-05-10T18:55:23;95533.94;;;17.15;51.69
27425;BME280;15244;49.088;11.886;2023-05-10T19:00:26;95537.09;;;17.14;51.74
27425;BME280;15244;49.088;11.886;2023-05-10T19:05:28;95544.25;;;17.11;51.87
27425;BME280;15244;49.088;11.886;2023-05-10T19:10:31;95545.53;;;17.06;51.85
27425;BME280;15244;49.088;11.886;2023-05-10T19:15:33;95551.16;;;17.03;51.98
27425;BME280;15244;49.088;11.886;2023-05-10T19:20:35;95558.28;;;17.00;51.99
27425;BME280;15244;49.088;11.886;2023-05-10T19:25:36;95558.81;;;16.95;52.25
27425;BME280;15244;49.088;11.886;2023-05-10T19:30:39;95566.34;;;16.91;52.22
27425;BME280;15244;49.088;11.886;2023-05-10T19:35:41;95570.31;;;16.90;52.39
27425;BME280;15244;49.088;11.886;2023-05-10T19:40:43;95567.56;;;16.90;52.34
27425;BME280;15244;49.088;11.886;2023-05-10T19:45:44;95565.59;;;16.90;52.08
27425;BME280;15244;49.088;11.886;2023-05-10T19:50:47;95562.84;;;16.90;52.35
27425;BME280;15244;49.088;11.886;2023-05-10T19:55:48;95558.97;;;16.88;52.21
27425;BME280;15244;49.088;11.886;2023-05-10T20:00:50;95563.34;;;16.85;52.41
27425;BME280;15244;49.088;11.886;2023-05-10T20:05:51;95563.78;;;16.84;52.40
27425;BME280;15244;49.088;11.886;2023-05-10T20:10:53;95559.91;;;16.81;52.47
27425;BME280;15244;49.088;11.886;2023-05-10T20:15:56;95569.44;;;16.77;52.47
27425;BME280;15244;49.088;11.886;2023-05-10T20:20:59;95579.72;;;16.73;52.63
27425;BME280;15244;49.088;11.886;2023-05-10T20:26:01;95574.31;;;16.69;52.63
27425;BME280;15244;49.088;11.886;2023-05-10T20:31:03;95567.25;;;16.68;52.52
27425;BME280;15244;49.088;11.886;2023-05-10T20:36:04;95565.28;;;16.68;52.76
27425;BME280;15244;49.088;11.886;2023-05-10T20:41:06;95562.53;;;16.68;53.01
27425;BME280;15244;49.088;11.886;2023-05-10T20:46:08;95572.69;;;16.72;52.74
27425;BME280;15244;49.088;11.886;2023-05-10T20:51:11;95566.81;;;16.69;52.97
27425;BME280;15244;49.088;11.886;2023-05-10T20:56:12;95567.25;;;16.68;52.88
27425;BME280;15244;49.088;11.886;2023-05-10T21:01:14;95561.38;;;16.66;53.23
27425;BME280;15244;49.088;11.886;2023-05-10T21:06:16;95558.72;;;16.62;53.31
27425;BME280;15244;49.088;11.886;2023-05-10T21:11:17;95559.13;;;16.61;53.13
27425;BME280;15244;49.088;11.886;2023-05-10T21:16:19;95549.69;;;16.62;53.26
27425;BME280;15244;49.088;11.886;2023-05-10T21:21:21;95556.81;;;16.59;53.20
27425;BME280;15244;49.088;11.886;2023-05-10T21:26:22;95548.22;;;16.57;53.08
27425;BME280;15244;49.088;11.886;2023-05-10T21:31:24;95546.38;;;16.51;53.19
27425;BME280;15244;49.088;11.886;2023-05-10T21:36:26;95548.47;;;16.46;53.23
27425;BME280;15244;49.088;11.886;2023-05-10T21:41:28;95546.72;;;16.36;53.03
27425;BME280;15244;49.088;11.886;2023-05-10T21:46:29;95549.53;;;16.33;53.31
27425;BME280;15244;49.088;11.886;2023-05-10T21:51:31;95549.97;;;16.31;53.38
27425;BME280;15244;49.088;11.886;2023-05-10T21:56:32;95547.63;;;16.30;53.41
27425;BME280;15244;49.088;11.886;2023-05-10T22:01:34;95541.34;;;16.29;53.42
27425;BME280;15244;49.088;11.886;2023-05-10T22:06:36;95546.84;;;16.29;53.65
27425;BME280;15244;49.088;11.886;2023-05-10T22:11:37;95539.03;;;16.28;53.67
27425;BME280;15244;49.088;11.886;2023-05-10T22:16:39;95528.81;;;16.28;53.75
27425;BME280;15244;49.088;11.886;2023-05-10T22:21:41;95544.09;;;16.29;53.52
27425;BME280;15244;49.088;11.886;2023-05-10T22:26:43;95540.59;;;16.29;53.93
27425;BME280;15244;49.088;11.886;2023-05-10T22:31:44;95545.22;;;16.32;54.12
27425;BME280;15244;49.088;11.886;2023-05-10T22:36:46;95532.25;;;16.32;53.98
27425;BME280;15244;49.088;11.886;2023-05-10T22:41:49;95535.84;;;16.29;53.98
27425;BME280;15244;49.088;11.886;2023-05-10T22:46:50;95535.50;;;16.27;53.86
27425;BME280;15244;49.088;11.886;2023-05-10T22:51:52;95535.13;;;16.25;53.86
27425;BME280;15244;49.088;11.886;2023-05-10T22:56:55;95540.31;;;16.23;53.80
27425;BME280;15244;49.088;11.886;2023-05-10T23:01:56;95531.84;;;16.14;53.59
27425;BME280;15244;49.088;11.886;2023-05-10T23:06:58;95540.25;;;16.07;53.87
27425;BME280;15244;49.088;11.886;2023-05-10T23:12:00;95534.81;;;16.03;53.61
27425;BME280;15244;49.088;11.886;2023-05-10T23:17:01;95538.75;;;16.02;53.69
27425;BME280;15244;49.088;11.886;2023-05-10T23:22:03;95549.41;;;16.00;54.03
27425;BME280;15244;49.088;11.886;2023-05-10T23:27:04;95543.50;;;16.01;53.96
27425;BME280;15244;49.088;11.886;2023-05-10T23:32:06;95545.53;;;15.97;53.52
27425;BME280;15244;49.088;11.886;2023-05-10T23:37:08;95537.72;;;15.96;53.57
27425;BME280;15244;49.088;11.886;2023-05-10T23:42:09;95540.88;;;15.94;53.76
27425;BME280;15244;49.088;11.886;2023-05-10T23:47:11;95538.63;;;15.89;53.69
27425;BME280;15244;49.088;11.886;2023-05-10T23:52:13;95537.06;;;15.88;54.02
27425;BME280;15244;49.088;11.886;2023-05-10T23:57:14;95531.63;;;15.85;53.73
